Flight Track Log - Related Links

Times and Time Zones

All times are in EDT time to prevent confusion due to time zone crossing. See the SWA378 flight status page for this flight to view local times or setup timezone preferences in your user account.


Time Position Orientation Groundspeed Altitude Reporting Facility
EDT Latitude Longitude Course Direction KTS MPH feet Rate Location/Type
Tue 11:14:22 AM 37.3833 -121.9500 345° North 183 211 1,600  Level Northern Cal TRACON
Tue 11:15:16 AM 37.4333 -121.9667 345° North 244 281 4,000 1,737 Climbing Northern Cal TRACON
Tue 11:16:16 AM 37.4333 -121.9000 90° East 255 293 4,900 1,650 Climbing Northern Cal TRACON
Tue 11:17:16 AM 37.3833 -121.8500 142° Southeast 235 270 7,300 1,826 Climbing Northern Cal TRACON
Tue 11:18:11 AM 37.3381 -121.8061 142° Southeast 237 273 8,400 1,966 Climbing Oakland Center
Tue 11:19:12 AM 37.2667 -121.7233 137° Southeast 286 329 11,100 2,754 Climbing Oakland Center
Tue 11:20:13 AM 37.1983 -121.6481 139° Southeast 324 373 14,000 2,754 Climbing Oakland Center
Tue 11:21:14 AM 37.1297 -121.5708 138° Southeast 332 382 16,700 2,537 Climbing Oakland Center
Tue 11:22:16 AM 37.0611 -121.4975 140° Southeast 360 414 19,200 2,780 Climbing Oakland Center
Tue 11:23:17 AM 36.9697 -121.3944 138° Southeast 371 427 22,400 2,705 Climbing Oakland Center
Tue 11:24:18 AM 36.8889 -121.3053 139° Southeast 385 443 24,700 2,066 Climbing Oakland Center
Tue 11:25:19 AM 36.7997 -121.2103 140° Southeast 405 466 26,600 2,049 Climbing Oakland Center
Tue 11:26:21 AM 36.7119 -121.1169 140° Southeast 414 476 28,900 1,805 Climbing Oakland Center
Tue 11:27:22 AM 36.6236 -121.0178 138° Southeast 425 489 30,300 1,672 Climbing Oakland Center
Tue 11:28:23 AM 36.5408 -120.9053 132° Southeast 437 503 32,300 2,115 Climbing Oakland Center
Tue 11:29:24 AM 36.4681 -120.7892 128° Southeast 428 493 34,600 1,820 Climbing Oakland Center
Tue 11:30:25 AM 36.3947 -120.6756 129° Southeast 423 487 36,000 1,171 Climbing Oakland Center
Tue 11:31:27 AM 36.3211 -120.5625 129° Southeast 422 486 37,000 488 Climbing Oakland Center
Tue 11:32:28 AM 36.2461 -120.4486 129° Southeast 426 490 37,000  Level Oakland Center
Tue 11:33:29 AM 36.1719 -120.3353 129° Southeast 423 487 37,000  Level Oakland Center
Tue 11:34:30 AM 36.0972 -120.2225 129° Southeast 422 486 37,000  Level Oakland Center
Tue 11:35:32 AM 36.0247 -120.1119 129° Southeast 416 479 37,000  Level Oakland Center
Tue 11:36:33 AM 35.9494 -119.9978 129° Southeast 422 486 37,000  Level Oakland Center
Tue 11:37:34 AM 35.8592 -119.8619 129° Southeast 426 490 37,000  Level Oakland Center
Tue 11:38:35 AM 35.7833 -119.7486 129° Southeast 426 490 37,000  Level Oakland Center
Tue 11:38:50 AM 35.7672 -119.7236 128° Southeast 434 499 37,000  Level Los Angeles Center
Tue 11:39:52 AM 35.6914 -119.6092 129° Southeast 431 496 37,000  Level Los Angeles Center
Tue 11:40:54 AM 35.6125 -119.4933 130° Southeast 438 504 37,000  Level Los Angeles Center
Tue 11:41:56 AM 35.5350 -119.3769 129° Southeast 439 505 37,000  Level Los Angeles Center
Tue 11:42:58 AM 35.4564 -119.2614 130° Southeast 440 506 37,000  Level Los Angeles Center
Tue 11:44:00 AM 35.3625 -119.1211 129° Southeast 442 509 37,000 -194 Level Los Angeles Center
Tue 11:45:02 AM 35.2836 -119.0044 130° Southeast 444 511 36,600 -726 Descending Los Angeles Center
Tue 11:46:04 AM 35.2044 -118.8906 130° Southeast 441 507 35,500 -968 Descending Los Angeles Center
Tue 11:47:06 AM 35.1278 -118.7789 130° Southeast 434 499 34,600 -919 Descending Los Angeles Center
Tue 11:48:08 AM 35.0511 -118.6681 130° Southeast 429 494 33,600 -1,597 Descending Los Angeles Center
Tue 11:49:10 AM 34.9736 -118.5550 130° Southeast 432 497 31,300 -2,516 Descending Los Angeles Center
Tue 11:50:12 AM 34.8831 -118.4250 130° Southeast 445 512 28,400 -2,419 Descending Los Angeles Center
Tue 11:51:14 AM 34.8075 -118.3167 130° Southeast 431 496 26,300 -1,488 Descending Los Angeles Center
Tue 11:52:17 AM 34.7375 -118.2169 130° Southeast 404 465 25,300 -1,056 Descending Los Angeles Center
Tue 11:53:19 AM 34.6703 -118.1206 130° Southeast 385 443 24,100 -1,500 Descending Los Angeles Center
Tue 11:54:21 AM 34.5994 -117.9969 125° Southeast 370 426 22,200 -1,597 Descending Los Angeles Center
Tue 11:55:23 AM 34.5531 -117.8931 118° Southeast 354 407 20,800 -1,645 Descending Los Angeles Center
Tue 11:56:25 AM 34.5061 -117.7925 120° Southeast 349 402 18,800 -1,935 Descending Los Angeles Center
Tue 11:57:27 AM 34.4614 -117.6933 119° Southeast 338 389 16,800 -1,887 Descending Los Angeles Center
Tue 11:58:29 AM 34.4161 -117.5983 120° Southeast 330 380 14,900 -1,452 Descending Los Angeles Center
Tue 11:59:31 AM 34.3719 -117.4972 118° Southeast 301 346 13,800 -823 Descending Los Angeles Center
Tue 12:00:33 PM 34.3325 -117.4142 120° Southeast 288 331 13,200 -823 Descending Los Angeles Center
Tue 12:01:35 PM 34.2733 -117.3744 151° Southeast 240 276 12,100 -1,456 Descending Los Angeles Center
Tue 12:02:49 PM 34.2056 -117.3319 153° Southeast 228 262 9,900 -1,971 Descending Los Angeles Center
Tue 12:03:52 PM 34.1358 -117.3031 161° South 219 252 7,600 -2,214 Descending Los Angeles Center
Tue 12:04:13 PM 34.1167 -117.3000 172° South 218 251 6,800 -1,852 Descending Southern California TRACON
Tue 12:05:13 PM 34.0667 -117.3167 195° South 224 258 5,100 -1,550 Descending Southern California TRACON
Tue 12:06:13 PM 34.0500 -117.3833 253° West 195 224 3,700 -900 Descending Southern California TRACON
Tue 12:07:13 PM 34.0500 -117.4333 270° West 160 184 3,300 -550 Descending Southern California TRACON
Tue 12:08:13 PM 34.0500 -117.4833 270° West 131 151 2,600 -750 Descending Southern California TRACON
Tue 12:09:13 PM 34.0500 -117.5333 270° West 133 153 1,800 -750 Descending Southern California TRACON
Tue 12:10:13 PM 34.0500 -117.5667 270° West 128 147 1,100 -700 Descending Southern California TRACON
Tue 12:13:00 PM 34.0500 -117.6000 North  Level FlightAware Approximate

Login

Don't have an account? Register now (free) for customized features, flight alerts, and more!